Time;durP1;ratioP1;P1;durP2;ratioP2;P2;SDS_P1;SDS_P2;PMS_P1;PMS_P2;Temp;Humidity;BMP_temperature;BMP_pressure;BME280_temperature;BME280_humidity;BME280_pressure;Samples;Min_cycle;Max_cycle;Signal;HPM_P1;HPM_P2
2021/11/19 00:01:48;;;;;;;5.35;4.53;;;;;;;;;;5013332;28;20419;-51
2021/11/19 00:04:14;;;;;;;4.85;3.92;;;;;;;;;;5014126;28;20030;-53
2021/11/19 00:06:40;;;;;;;4.90;3.60;;;;;;;;;;5014449;28;20190;-55
2021/11/19 00:09:07;;;;;;;10.27;4.18;;;;;;;;;;5013441;28;20033;-54
2021/11/19 00:11:34;;;;;;;8.52;5.10;;;;;;;;;;5012702;28;20049;-54
2021/11/19 00:14:02;;;;;;;5.50;3.90;;;;;;;;;;5015986;28;20458;-53
2021/11/19 00:16:27;;;;;;;5.28;4.05;;;;;;;;;;5012316;28;20042;-52
2021/11/19 00:18:57;;;;;;;6.47;4.93;;;;;;;;;;5014395;28;20025;-50
2021/11/19 00:21:25;;;;;;;5.07;4.55;;;;;;;;;;5011634;28;20106;-51
2021/11/19 00:23:51;;;;;;;5.57;3.92;;;;;;;;;;5012846;28;20029;-54
2021/11/19 00:26:18;;;;;;;7.20;4.97;;;;;;;;;;5014027;28;20041;-55
2021/11/19 00:28:44;;;;;;;5.75;4.00;;;;;;;;;;5017063;28;20033;-52
2021/11/19 00:31:10;;;;;;;5.20;3.67;;;;;;;;;;5013755;28;20156;-56
2021/11/19 00:33:37;;;;;;;4.88;3.58;;;;;;;;;;5016024;28;20029;-57
2021/11/19 00:36:04;;;;;;;4.85;3.88;;;;;;;;;;5013932;28;20537;-58
2021/11/19 00:38:29;;;;;;;7.05;5.18;;;;;;;;;;5014579;28;20076;-52
2021/11/19 00:40:59;;;;;;;4.10;3.53;;;;;;;;;;5013850;28;20033;-52
2021/11/19 00:43:25;;;;;;;7.75;4.47;;;;;;;;;;5015396;28;20030;-53
2021/11/19 00:45:52;;;;;;;10.18;4.40;;;;;;;;;;5014756;28;20134;-55
2021/11/19 00:48:19;;;;;;;5.85;4.03;;;;;;;;;;5014295;28;20037;-54
2021/11/19 00:50:50;;;;;;;8.80;4.05;;;;;;;;;;5014626;28;20087;-54
2021/11/19 00:53:16;;;;;;;7.50;5.07;;;;;;;;;;5015727;28;20068;-53
2021/11/19 00:55:42;;;;;;;5.93;3.80;;;;;;;;;;5014395;28;20030;-52
2021/11/19 00:58:08;;;;;;;9.10;4.85;;;;;;;;;;5015355;28;20033;-54
2021/11/19 01:00:42;;;;;;;6.47;4.72;;;;;;;;;;5014418;28;20025;-55
2021/11/19 01:03:07;;;;;;;9.80;4.75;;;;;;;;;;5013111;28;20045;-56
2021/11/19 01:05:33;;;;;;;7.57;5.35;;;;;;;;;;5011653;28;20029;-53
2021/11/19 01:07:58;;;;;;;5.15;4.55;;;;;;;;;;5016287;28;20459;-53
2021/11/19 01:10:28;;;;;;;6.18;4.85;;;;;;;;;;5013435;28;20065;-53
2021/11/19 01:12:55;;;;;;;4.63;3.97;;;;;;;;;;5011168;28;20036;-54
2021/11/19 01:15:29;;;;;;;6.15;5.22;;;;;;;;;;5011689;28;20464;-52
2021/11/19 01:18:20;;;;;;;6.72;5.55;;;;;;;;;;5014969;28;20039;-54
2021/11/19 01:20:48;;;;;;;;;;;;;;;;;;5012704;28;20053;-51
2021/11/19 01:23:17;;;;;;;5.25;4.25;;;;;;;;;;5016425;28;20424;-53
2021/11/19 01:25:49;;;;;;;5.40;4.40;;;;;;;;;;5014567;28;20037;-54
2021/11/19 01:28:15;;;;;;;4.82;4.32;;;;;;;;;;5011869;28;20065;-54
2021/11/19 01:30:56;;;;;;;9.43;4.85;;;;;;;;;;5013354;28;20052;-59
2021/11/19 01:33:23;;;;;;;8.25;4.72;;;;;;;;;;5012131;28;20033;-58
2021/11/19 01:35:48;;;;;;;5.88;4.38;;;;;;;;;;5011300;28;20060;-57
2021/11/19 01:38:13;;;;;;;6.07;5.20;;;;;;;;;;5013371;28;20029;-57
2021/11/19 01:40:51;;;;;;;5.25;4.57;;;;;;;;;;5013435;28;20375;-58
2021/11/19 01:43:17;;;;;;;10.05;5.75;;;;;;;;;;5010599;28;20037;-58
2021/11/19 01:45:48;;;;;;;10.13;4.20;;;;;;;;;;5013390;28;20183;-58
2021/11/19 01:48:17;;;;;;;6.00;4.70;;;;;;;;;;5016424;28;20137;-57
2021/11/19 01:50:48;;;;;;;6.05;5.07;;;;;;;;;;5012073;28;20030;-57
2021/11/19 01:53:13;;;;;;;;;;;;;;;;;;5014657;28;20044;-57
2021/11/19 01:55:55;;;;;;;7.35;4.97;;;;;;;;;;5014131;28;20439;-59
2021/11/19 01:58:23;;;;;;;;;;;;;;;;;;5016998;28;20033;-57
2021/11/19 02:00:55;;;;;;;5.80;5.20;;;;;;;;;;5012150;28;19964;-58
2021/11/19 02:03:24;;;;;;;5.28;4.47;;;;;;;;;;5015411;28;20041;-58
2021/11/19 02:06:22;;;;;;;7.60;4.97;;;;;;;;;;5014700;28;20029;-58
2021/11/19 02:08:48;;;;;;;7.50;4.00;;;;;;;;;;5014785;28;20038;-58
2021/11/19 02:11:46;;;;;;;6.80;4.88;;;;;;;;;;5017902;28;20113;-58
2021/11/19 02:14:15;;;;;;;5.20;4.28;;;;;;;;;;5016175;28;20108;-58
2021/11/19 02:16:44;;;;;;;6.65;4.97;;;;;;;;;;5018469;28;20046;-58
2021/11/19 02:19:25;;;;;;;8.70;4.65;;;;;;;;;;5016120;28;20117;-58
2021/11/19 02:22:17;;;;;;;;;;;;;;;;;;5019213;28;20041;-58
2021/11/19 02:24:59;;;;;;;9.57;5.10;;;;;;;;;;5012380;28;19933;-57
2021/11/19 02:27:35;;;;;;;14.25;4.38;;;;;;;;;;5016353;28;20029;-58
2021/11/19 02:30:07;;;;;;;4.30;3.90;;;;;;;;;;5017348;28;20026;-58
2021/11/19 02:32:37;;;;;;;5.50;4.25;;;;;;;;;;5016129;28;20743;-58
2021/11/19 02:35:06;;;;;;;7.38;5.18;;;;;;;;;;5015393;28;20037;-57
2021/11/19 02:37:37;;;;;;;6.50;4.88;;;;;;;;;;5019377;28;20038;-57
2021/11/19 02:40:10;;;;;;;8.32;5.50;;;;;;;;;;5018404;28;20076;-58
2021/11/19 02:42:43;;;;;;;6.32;4.93;;;;;;;;;;5016846;28;20043;-58
2021/11/19 02:45:14;;;;;;;6.75;5.68;;;;;;;;;;5016231;28;20121;-57
2021/11/19 02:47:41;;;;;;;7.00;4.78;;;;;;;;;;5016596;28;20029;-58
2021/11/19 02:50:07;;;;;;;5.97;4.35;;;;;;;;;;5016621;28;20049;-58
2021/11/19 02:52:38;;;;;;;5.07;4.57;;;;;;;;;;5018655;28;20029;-58
2021/11/19 02:55:09;;;;;;;6.22;5.60;;;;;;;;;;5015527;28;20355;-59
2021/11/19 02:57:36;;;;;;;18.05;5.57;;;;;;;;;;5018085;28;20064;-54
2021/11/19 03:00:04;;;;;;;7.32;5.22;;;;;;;;;;5015995;28;20055;-55
2021/11/19 03:02:31;;;;;;;4.07;3.67;;;;;;;;;;5012624;28;20125;-56
2021/11/19 03:05:01;;;;;;;7.57;5.95;;;;;;;;;;5016792;28;20056;-55
2021/11/19 03:07:26;;;;;;;12.27;6.88;;;;;;;;;;5011351;28;20040;-54
2021/11/19 03:10:02;;;;;;;7.70;4.75;;;;;;;;;;5014879;28;20029;-54
2021/11/19 03:12:29;;;;;;;6.65;4.80;;;;;;;;;;5014445;28;20376;-55
2021/11/19 03:14:56;;;;;;;7.85;5.53;;;;;;;;;;5014785;28;20026;-55
2021/11/19 03:17:23;;;;;;;5.70;4.40;;;;;;;;;;5014262;28;20076;-55
2021/11/19 03:19:49;;;;;;;11.30;6.25;;;;;;;;;;5015429;28;20033;-55
2021/11/19 03:22:18;;;;;;;6.78;5.25;;;;;;;;;;5015592;28;20176;-55
2021/11/19 03:24:44;;;;;;;7.20;4.38;;;;;;;;;;5014616;28;20117;-55
2021/11/19 03:27:11;;;;;;;6.40;5.32;;;;;;;;;;5015443;28;20038;-56
2021/11/19 03:29:41;;;;;;;4.68;4.03;;;;;;;;;;5016172;28;20045;-55
2021/11/19 03:32:10;;;;;;;6.28;4.40;;;;;;;;;;5020457;28;20069;-55
2021/11/19 03:34:36;;;;;;;6.85;5.63;;;;;;;;;;5016677;28;20068;-53
2021/11/19 03:37:02;;;;;;;5.15;4.22;;;;;;;;;;5018587;28;20112;-55
2021/11/19 03:39:29;;;;;;;16.67;5.13;;;;;;;;;;4999995;28;20463;-54
2021/11/19 03:41:56;;;;;;;6.90;5.10;;;;;;;;;;5015977;28;20025;-54
2021/11/19 03:44:28;;;;;;;5.55;4.43;;;;;;;;;;5015594;28;20026;-54
2021/11/19 03:47:06;;;;;;;5.47;4.20;;;;;;;;;;5015603;28;20029;-54
2021/11/19 03:49:33;;;;;;;6.45;5.18;;;;;;;;;;5014373;28;20045;-52
2021/11/19 03:52:12;;;;;;;8.20;6.28;;;;;;;;;;5013616;28;20096;-52
2021/11/19 03:54:40;;;;;;;9.07;6.30;;;;;;;;;;5016139;28;20525;-54
2021/11/19 03:57:09;;;;;;;9.88;6.03;;;;;;;;;;5017583;28;20053;-52
2021/11/19 03:59:35;;;;;;;10.18;5.40;;;;;;;;;;5012128;28;20108;-54
2021/11/19 04:02:02;;;;;;;7.03;6.18;;;;;;;;;;5012491;28;20345;-54
2021/11/19 04:04:30;;;;;;;7.47;4.90;;;;;;;;;;5016314;28;20037;-55
2021/11/19 04:06:58;;;;;;;15.48;5.60;;;;;;;;;;5015989;28;20030;-55
2021/11/19 04:09:23;;;;;;;6.55;5.40;;;;;;;;;;5015844;28;20483;-55
2021/11/19 04:11:49;;;;;;;8.00;5.63;;;;;;;;;;5012259;28;20068;-55
2021/11/19 04:14:14;;;;;;;8.07;5.00;;;;;;;;;;5014045;28;20549;-54
2021/11/19 04:16:45;;;;;;;8.38;6.13;;;;;;;;;;5011875;28;20095;-55
2021/11/19 04:19:12;;;;;;;6.57;5.55;;;;;;;;;;5013470;28;20053;-55
2021/11/19 04:21:38;;;;;;;10.48;5.40;;;;;;;;;;5016999;28;20608;-54
2021/11/19 04:24:06;;;;;;;5.20;4.70;;;;;;;;;;5018447;28;20095;-54
2021/11/19 04:26:34;;;;;;;8.48;5.22;;;;;;;;;;5014922;28;20041;-55
2021/11/19 04:29:00;;;;;;;7.75;5.78;;;;;;;;;;5033151;28;20450;-54
2021/11/19 04:31:28;;;;;;;10.15;6.65;;;;;;;;;;5015925;28;20048;-55
2021/11/19 04:33:54;;;;;;;6.65;5.15;;;;;;;;;;5015920;28;20088;-54
2021/11/19 04:36:20;;;;;;;7.75;6.22;;;;;;;;;;5013493;28;20474;-53
2021/11/19 04:38:46;;;;;;;11.80;5.15;;;;;;;;;;5015377;28;20022;-56
2021/11/19 04:41:12;;;;;;;5.35;4.07;;;;;;;;;;5015886;28;20044;-55
2021/11/19 04:43:38;;;;;;;6.60;4.82;;;;;;;;;;5014634;28;20099;-54
2021/11/19 04:46:05;;;;;;;6.72;4.97;;;;;;;;;;5013158;28;20484;-55
2021/11/19 04:48:34;;;;;;;7.88;5.55;;;;;;;;;;5014608;28;20429;-54
2021/11/19 04:51:02;;;;;;;5.47;4.38;;;;;;;;;;5013640;28;20309;-54
2021/11/19 04:53:28;;;;;;;6.90;5.85;;;;;;;;;;5015034;28;20040;-55
2021/11/19 04:55:54;;;;;;;7.53;6.28;;;;;;;;;;5014635;28;20029;-54
2021/11/19 04:58:21;;;;;;;9.23;5.93;;;;;;;;;;5013081;28;20040;-54
2021/11/19 05:00:54;;;;;;;13.82;4.93;;;;;;;;;;5012774;28;20032;-55
2021/11/19 05:03:20;;;;;;;7.40;5.70;;;;;;;;;;5016183;28;20030;-54
2021/11/19 05:05:46;;;;;;;7.18;5.10;;;;;;;;;;5014557;28;20340;-51
2021/11/19 05:08:12;;;;;;;6.15;4.80;;;;;;;;;;5016270;28;20034;-55
2021/11/19 05:10:40;;;;;;;5.80;4.10;;;;;;;;;;5015871;28;20026;-55
2021/11/19 05:13:06;;;;;;;5.93;4.85;;;;;;;;;;5012181;28;20087;-51
2021/11/19 05:15:33;;;;;;;9.43;5.95;;;;;;;;;;5014350;28;20038;-57
2021/11/19 05:17:58;;;;;;;6.13;5.30;;;;;;;;;;5015373;28;20033;-52
2021/11/19 05:20:24;;;;;;;5.32;4.82;;;;;;;;;;5015002;28;20026;-54
2021/11/19 05:22:51;;;;;;;6.05;5.35;;;;;;;;;;5016222;28;20068;-55
2021/11/19 05:25:20;;;;;;;7.45;5.47;;;;;;;;;;5015132;28;20034;-54
2021/11/19 05:27:48;;;;;;;8.13;5.80;;;;;;;;;;5015532;28;20032;-55
2021/11/19 05:30:15;;;;;;;8.82;4.90;;;;;;;;;;5014063;28;20061;-52
2021/11/19 05:32:41;;;;;;;7.72;5.85;;;;;;;;;;5012514;28;20025;-54
2021/11/19 05:35:09;;;;;;;11.32;4.97;;;;;;;;;;5012954;28;20037;-54
2021/11/19 05:37:35;;;;;;;5.45;4.95;;;;;;;;;;5010017;28;20095;-55
2021/11/19 05:40:01;;;;;;;10.63;7.68;;;;;;;;;;5013364;28;20490;-56
2021/11/19 05:42:27;;;;;;;7.97;5.50;;;;;;;;;;5014861;28;20559;-57
2021/11/19 05:44:53;;;;;;;7.57;6.35;;;;;;;;;;5015525;28;20026;-52
2021/11/19 05:47:18;;;;;;;8.65;6.65;;;;;;;;;;5011550;28;20048;-53
2021/11/19 05:49:44;;;;;;;8.43;6.85;;;;;;;;;;5013079;28;20030;-55
2021/11/19 05:52:11;;;;;;;13.43;7.82;;;;;;;;;;5012660;28;20064;-51
2021/11/19 05:54:37;;;;;;;10.88;5.78;;;;;;;;;;5016045;28;20027;-53
2021/11/19 05:57:05;;;;;;;8.65;6.28;;;;;;;;;;5013689;28;20040;-56
2021/11/19 05:59:31;;;;;;;13.13;5.90;;;;;;;;;;5012263;28;20391;-56
2021/11/19 06:01:57;;;;;;;10.85;5.57;;;;;;;;;;5015693;28;20094;-57
2021/11/19 06:04:23;;;;;;;8.02;6.82;;;;;;;;;;5013576;28;20022;-55
2021/11/19 06:06:48;;;;;;;8.20;6.00;;;;;;;;;;5011729;28;20044;-49
2021/11/19 06:09:20;;;;;;;6.40;5.38;;;;;;;;;;5013603;28;20037;-51
2021/11/19 06:11:52;;;;;;;8.80;5.68;;;;;;;;;;5009828;28;20123;-55
2021/11/19 06:14:33;;;;;;;7.05;6.35;;;;;;;;;;5009853;28;20080;-53
2021/11/19 06:17:02;;;;;;;8.70;6.50;;;;;;;;;;5008737;28;20038;-55
2021/11/19 06:19:37;;;;;;;8.57;5.63;;;;;;;;;;5011034;28;20107;-55
2021/11/19 06:22:08;;;;;;;8.35;5.20;;;;;;;;;;5010123;28;20345;-54
2021/11/19 06:24:41;;;;;;;10.73;6.38;;;;;;;;;;5011664;28;20116;-52
2021/11/19 06:27:09;;;;;;;5.57;4.93;;;;;;;;;;5011094;28;20531;-54
2021/11/19 06:29:34;;;;;;;11.20;6.93;;;;;;;;;;5012541;28;20065;-54
2021/11/19 06:32:00;;;;;;;7.10;5.88;;;;;;;;;;5013558;28;20961;-54
2021/11/19 06:34:26;;;;;;;8.18;6.70;;;;;;;;;;5016985;28;20036;-54
2021/11/19 06:36:52;;;;;;;8.77;6.57;;;;;;;;;;5012784;28;20030;-53
2021/11/19 06:39:18;;;;;;;8.88;6.00;;;;;;;;;;5013422;28;20041;-55
2021/11/19 06:41:44;;;;;;;6.88;5.88;;;;;;;;;;5006773;28;20037;-55
2021/11/19 06:44:11;;;;;;;10.45;7.55;;;;;;;;;;5012217;28;20064;-55
2021/11/19 06:46:38;;;;;;;8.25;5.95;;;;;;;;;;5011094;28;20052;-52
2021/11/19 06:49:05;;;;;;;8.68;6.15;;;;;;;;;;5006650;28;20057;-54
2021/11/19 06:51:31;;;;;;;9.38;6.85;;;;;;;;;;5013880;28;20041;-55
2021/11/19 06:53:56;;;;;;;11.77;6.00;;;;;;;;;;5014111;28;20032;-55
2021/11/19 06:56:22;;;;;;;7.07;5.97;;;;;;;;;;5013022;28;20034;-55
2021/11/19 06:58:49;;;;;;;7.22;5.35;;;;;;;;;;5013097;28;20088;-55
2021/11/19 07:01:15;;;;;;;12.18;6.18;;;;;;;;;;5015281;28;20029;-54
2021/11/19 07:03:40;;;;;;;10.90;5.68;;;;;;;;;;5014217;28;20033;-55
2021/11/19 07:06:06;;;;;;;11.93;6.13;;;;;;;;;;5014087;28;20107;-53
2021/11/19 07:08:31;;;;;;;9.70;7.10;;;;;;;;;;5012518;28;20034;-55
2021/11/19 07:11:01;;;;;;;10.13;5.10;;;;;;;;;;5016074;28;20038;-58
2021/11/19 07:13:28;;;;;;;7.72;6.22;;;;;;;;;;5014975;28;20044;-58
2021/11/19 07:15:54;;;;;;;5.57;5.00;;;;;;;;;;5015623;28;20420;-58
2021/11/19 07:18:20;;;;;;;14.88;7.05;;;;;;;;;;5015110;28;20030;-58
2021/11/19 07:20:46;;;;;;;6.55;5.90;;;;;;;;;;5014647;28;20053;-57
2021/11/19 07:23:12;;;;;;;5.70;4.68;;;;;;;;;;5019866;28;20041;-58
2021/11/19 07:25:38;;;;;;;7.20;5.05;;;;;;;;;;5017319;28;20025;-57
2021/11/19 07:28:05;;;;;;;9.82;5.13;;;;;;;;;;5018112;28;20029;-58
2021/11/19 07:30:41;;;;;;;8.25;7.35;;;;;;;;;;5015698;28;20136;-58
2021/11/19 07:33:07;;;;;;;13.25;8.07;;;;;;;;;;5018273;28;20029;-58
2021/11/19 07:35:33;;;;;;;7.78;6.50;;;;;;;;;;5017505;28;20107;-58
2021/11/19 07:37:59;;;;;;;8.20;6.07;;;;;;;;;;5010518;28;20029;-58
2021/11/19 07:40:28;;;;;;;10.80;6.72;;;;;;;;;;5014083;28;20175;-58
2021/11/19 07:42:54;;;;;;;9.70;6.45;;;;;;;;;;5015936;28;20556;-58
2021/11/19 07:45:19;;;;;;;19.92;6.75;;;;;;;;;;5017135;28;20038;-58
2021/11/19 07:47:47;;;;;;;7.88;5.85;;;;;;;;;;5013801;28;20090;-58
2021/11/19 07:50:15;;;;;;;7.60;6.53;;;;;;;;;;5013615;28;20458;-58
2021/11/19 07:52:40;;;;;;;6.30;5.68;;;;;;;;;;5009956;28;20042;-58
2021/11/19 07:55:07;;;;;;;7.80;6.47;;;;;;;;;;5013901;28;20045;-58
2021/11/19 07:57:33;;;;;;;6.18;5.55;;;;;;;;;;5014965;28;20368;-58
2021/11/19 07:59:58;;;;;;;8.82;6.20;;;;;;;;;;5015445;28;20033;-54
2021/11/19 08:02:23;;;;;;;8.45;5.55;;;;;;;;;;5016788;28;20026;-58
2021/11/19 08:04:49;;;;;;;8.40;5.78;;;;;;;;;;5011305;28;20029;-58
2021/11/19 08:07:15;;;;;;;11.65;7.22;;;;;;;;;;5011337;28;20038;-53
2021/11/19 08:09:40;;;;;;;9.05;6.85;;;;;;;;;;5013595;28;20030;-54
2021/11/19 08:12:06;;;;;;;7.65;6.03;;;;;;;;;;5013587;28;20076;-53
2021/11/19 08:14:32;;;;;;;7.25;6.47;;;;;;;;;;5012523;28;20045;-52
2021/11/19 08:17:02;;;;;;;6.57;5.93;;;;;;;;;;5009672;28;20037;-53
2021/11/19 08:19:43;;;;;;;6.38;5.75;;;;;;;;;;5011575;28;20472;-54
2021/11/19 08:22:09;;;;;;;16.88;7.90;;;;;;;;;;5011490;28;20172;-52
2021/11/19 08:24:35;;;;;;;9.98;8.02;;;;;;;;;;5010118;28;20032;-51
2021/11/19 08:27:06;;;;;;;8.20;5.65;;;;;;;;;;5011591;28;20026;-52
2021/11/19 08:29:32;;;;;;;;;;;;;;;;;;5013781;28;20120;-51
2021/11/19 08:31:59;;;;;;;7.95;6.07;;;;;;;;;;5014040;28;19921;-53
2021/11/19 08:34:25;;;;;;;8.27;6.53;;;;;;;;;;5019355;28;20168;-52
2021/11/19 08:36:51;;;;;;;10.07;6.55;;;;;;;;;;5011624;28;20148;-54
2021/11/19 08:39:22;;;;;;;7.10;5.57;;;;;;;;;;5013850;28;20030;-52
2021/11/19 08:41:48;;;;;;;7.68;6.72;;;;;;;;;;5014248;28;20029;-50
2021/11/19 08:44:14;;;;;;;8.25;7.03;;;;;;;;;;5012391;28;20065;-51
2021/11/19 08:46:44;;;;;;;8.73;6.53;;;;;;;;;;5012175;28;20042;-53
2021/11/19 08:49:14;;;;;;;8.97;7.10;;;;;;;;;;5013836;28;20038;-53
2021/11/19 08:51:40;;;;;;;7.82;6.07;;;;;;;;;;5014475;28;20076;-51
2021/11/19 08:54:09;;;;;;;7.03;6.07;;;;;;;;;;5012012;28;20123;-50
2021/11/19 08:56:37;;;;;;;10.38;7.35;;;;;;;;;;5012035;28;20165;-53
2021/11/19 08:59:04;;;;;;;12.50;6.32;;;;;;;;;;5012827;28;20029;-50
2021/11/19 09:01:30;;;;;;;8.55;6.30;;;;;;;;;;5013856;28;20033;-52
2021/11/19 09:03:55;;;;;;;6.55;5.63;;;;;;;;;;5015546;28;20045;-54
2021/11/19 09:06:22;;;;;;;8.52;6.93;;;;;;;;;;5010814;28;20042;-54
2021/11/19 09:08:48;;;;;;;7.22;6.18;;;;;;;;;;5012618;28;20455;-54
2021/11/19 09:11:19;;;;;;;5.40;4.88;;;;;;;;;;5011736;28;20037;-55
2021/11/19 09:13:46;;;;;;;10.02;6.00;;;;;;;;;;5012780;28;20029;-53
2021/11/19 09:16:14;;;;;;;5.35;4.70;;;;;;;;;;5013001;28;20041;-52
2021/11/19 09:19:11;;;;;;;6.13;5.22;;;;;;;;;;5010913;28;20637;-53
2021/11/19 09:21:46;;;;;;;6.88;5.65;;;;;;;;;;5000499;28;20132;-52
2021/11/19 09:24:17;;;;;;;16.27;8.23;;;;;;;;;;5009343;28;20030;-53
2021/11/19 09:26:47;;;;;;;;;;;;;;;;;;5011105;28;20139;-50
2021/11/19 09:29:17;;;;;;;6.38;5.78;;;;;;;;;;5010119;28;20342;-53
2021/11/19 09:31:44;;;;;;;7.33;5.23;;;;;;;;;;5013345;28;20033;-52
2021/11/19 09:34:10;;;;;;;10.70;6.95;;;;;;;;;;5013709;28;20072;-54
2021/11/19 09:36:37;;;;;;;7.80;6.18;;;;;;;;;;5011464;28;20100;-53
2021/11/19 09:39:06;;;;;;;8.50;6.50;;;;;;;;;;5009998;28;20458;-55
2021/11/19 09:41:45;;;;;;;9.15;6.50;;;;;;;;;;5009919;28;20460;-53
2021/11/19 09:44:45;;;;;;;6.40;5.10;;;;;;;;;;5014500;28;20034;-53
2021/11/19 09:47:47;;;;;;;7.97;5.75;;;;;;;;;;5012577;28;20045;-53
2021/11/19 09:50:51;;;;;;;5.38;4.88;;;;;;;;;;5012008;28;20718;-54
2021/11/19 09:54:02;;;;;;;8.85;6.80;;;;;;;;;;5012340;28;20092;-54
2021/11/19 09:56:51;;;;;;;9.85;6.97;;;;;;;;;;4988754;28;20100;-55
2021/11/19 09:59:38;;;;;;;8.10;6.68;;;;;;;;;;5013381;28;20034;-55
2021/11/19 10:02:37;;;;;;;7.45;6.55;;;;;;;;;;5011303;28;20454;-55
2021/11/19 10:05:23;;;;;;;6.97;5.85;;;;;;;;;;5009081;28;20085;-56
2021/11/19 10:08:16;;;;;;;9.50;7.72;;;;;;;;;;5010243;28;20049;-53
2021/11/19 10:10:55;;;;;;;7.03;5.50;;;;;;;;;;5012234;28;20125;-55
2021/11/19 10:13:31;;;;;;;5.90;5.30;;;;;;;;;;5011520;28;20105;-56
2021/11/19 10:16:02;;;;;;;6.68;5.97;;;;;;;;;;5010776;28;20040;-56
2021/11/19 10:18:34;;;;;;;8.68;5.30;;;;;;;;;;5009941;28;20017;-57
2021/11/19 10:21:07;;;;;;;6.03;5.25;;;;;;;;;;5011757;28;20038;-55
2021/11/19 10:23:41;;;;;;;6.20;5.63;;;;;;;;;;5011636;28;20033;-56
2021/11/19 10:26:19;;;;;;;9.23;6.63;;;;;;;;;;5012765;28;20521;-55
2021/11/19 10:28:57;;;;;;;5.97;5.38;;;;;;;;;;5015816;28;20037;-56
2021/11/19 10:31:24;;;;;;;7.80;6.35;;;;;;;;;;5013980;28;20037;-54
2021/11/19 10:34:16;;;;;;;10.50;5.53;;;;;;;;;;4995631;28;20403;-56
2021/11/19 10:37:01;;;;;;;9.57;6.38;;;;;;;;;;5015999;28;20037;-55
2021/11/19 10:39:49;;;;;;;6.75;5.63;;;;;;;;;;5017329;28;20033;-55
2021/11/19 10:42:37;;;;;;;6.72;5.25;;;;;;;;;;5015676;28;20471;-53
2021/11/19 10:45:21;;;;;;;9.02;5.32;;;;;;;;;;5014420;28;20418;-55
2021/11/19 10:47:49;;;;;;;6.60;4.85;;;;;;;;;;5014627;28;20060;-56
2021/11/19 10:50:32;;;;;;;7.30;5.85;;;;;;;;;;5009392;28;20033;-55
2021/11/19 10:53:28;;;;;;;11.95;5.95;;;;;;;;;;5011802;28;20034;-57
2021/11/19 10:56:19;;;;;;;11.43;5.63;;;;;;;;;;5012239;28;20045;-56
2021/11/19 10:59:21;;;;;;;6.00;5.10;;;;;;;;;;5018269;28;20455;-57
2021/11/19 11:02:19;;;;;;;5.28;4.13;;;;;;;;;;5017796;28;20041;-56
2021/11/19 11:05:00;;;;;;;9.73;5.15;;;;;;;;;;5007115;28;20045;-56
2021/11/19 11:07:32;;;;;;;6.10;4.63;;;;;;;;;;5016585;28;20412;-56
2021/11/19 11:09:57;;;;;;;6.30;4.75;;;;;;;;;;5015861;28;20030;-56
2021/11/19 11:12:28;;;;;;;6.57;5.03;;;;;;;;;;5015448;28;20037;-56
2021/11/19 11:15:06;;;;;;;6.60;4.82;;;;;;;;;;5014313;28;20033;-58
2021/11/19 11:17:37;;;;;;;5.97;5.10;;;;;;;;;;5015147;28;20038;-53
2021/11/19 11:20:20;;;;;;;;;;;;;;;;;;5014441;28;20025;-54
2021/11/19 11:22:53;;;;;;;4.70;3.90;;;;;;;;;;5014327;28;20236;-57
2021/11/19 11:25:32;;;;;;;4.70;4.22;;;;;;;;;;5020704;28;20048;-56
2021/11/19 11:28:20;;;;;;;5.15;4.65;;;;;;;;;;5015020;28;20464;-56
2021/11/19 11:30:52;;;;;;;3.53;3.22;;;;;;;;;;5013132;28;20052;-56
2021/11/19 11:33:26;;;;;;;6.47;4.72;;;;;;;;;;5015644;28;20092;-55
2021/11/19 11:36:08;;;;;;;4.88;4.38;;;;;;;;;;5013953;28;20091;-54
2021/11/19 11:38:49;;;;;;;6.68;5.07;;;;;;;;;;5013628;28;20518;-54
2021/11/19 11:41:34;;;;;;;;;;;;;;;;;;5014047;28;20117;-54
2021/11/19 11:44:05;;;;;;;5.95;4.65;;;;;;;;;;5017081;28;20165;-54
2021/11/19 11:46:35;;;;;;;4.20;3.80;;;;;;;;;;5015524;28;20113;-56
2021/11/19 11:49:16;;;;;;;4.40;3.58;;;;;;;;;;5012633;28;20042;-56
2021/11/19 11:52:00;;;;;;;4.20;3.78;;;;;;;;;;5018363;28;20044;-56
2021/11/19 11:54:51;;;;;;;4.18;3.60;;;;;;;;;;5008880;28;20042;-58
2021/11/19 11:57:31;;;;;;;6.78;4.00;;;;;;;;;;5009903;28;20036;-56
2021/11/19 12:00:03;;;;;;;4.80;4.30;;;;;;;;;;5015960;28;20029;-58
2021/11/19 12:02:40;;;;;;;3.85;3.55;;;;;;;;;;5010123;28;20042;-59
2021/11/19 12:05:28;;;;;;;5.55;4.75;;;;;;;;;;5013576;28;20038;-57
2021/11/19 12:08:20;;;;;;;4.53;3.97;;;;;;;;;;5015456;28;20933;-57
2021/11/19 12:11:25;;;;;;;5.03;4.35;;;;;;;;;;5005884;28;20042;-57
2021/11/19 12:13:59;;;;;;;3.92;3.53;;;;;;;;;;5013778;28;20095;-56
2021/11/19 12:16:50;;;;;;;5.72;3.35;;;;;;;;;;5013556;28;20042;-58
2021/11/19 12:19:19;;;;;;;5.22;3.95;;;;;;;;;;5013314;28;20033;-58
2021/11/19 12:22:03;;;;;;;3.25;2.90;;;;;;;;;;5009151;28;20034;-57
2021/11/19 12:24:51;;;;;;;7.53;4.18;;;;;;;;;;5010646;28;20025;-54
2021/11/19 12:27:17;;;;;;;4.78;4.13;;;;;;;;;;5011818;28;20057;-56
2021/11/19 12:30:12;;;;;;;3.88;3.08;;;;;;;;;;5010256;28;20119;-54
2021/11/19 12:32:51;;;;;;;3.72;3.35;;;;;;;;;;5009855;28;20034;-56
2021/11/19 12:35:27;;;;;;;4.60;4.10;;;;;;;;;;5012279;28;20045;-55
2021/11/19 12:38:20;;;;;;;5.35;4.47;;;;;;;;;;5015121;28;20112;-56
2021/11/19 12:40:52;;;;;;;3.33;3.00;;;;;;;;;;5018536;28;20030;-56
2021/11/19 12:43:43;;;;;;;5.43;3.55;;;;;;;;;;5015516;28;20113;-56
2021/11/19 12:46:36;;;;;;;4.07;3.67;;;;;;;;;;5013634;28;20076;-54
2021/11/19 12:49:24;;;;;;;3.95;3.33;;;;;;;;;;5011889;28;20034;-57
2021/11/19 12:52:00;;;;;;;3.60;2.80;;;;;;;;;;5016636;28;20474;-55
2021/11/19 12:55:09;;;;;;;4.28;3.17;;;;;;;;;;5015156;28;20067;-55
2021/11/19 12:58:05;;;;;;;3.80;3.42;;;;;;;;;;5010940;28;20068;-56
2021/11/19 13:00:40;;;;;;;3.15;2.55;;;;;;;;;;5011148;28;20125;-55
2021/11/19 13:03:20;;;;;;;3.63;2.72;;;;;;;;;;5014043;28;20125;-54
2021/11/19 13:06:17;;;;;;;3.15;2.70;;;;;;;;;;5013581;28;20533;-55
2021/11/19 13:08:43;;;;;;;3.10;2.80;;;;;;;;;;5013037;28;20040;-55
2021/11/19 13:11:30;;;;;;;3.80;3.10;;;;;;;;;;5004077;28;20029;-55
2021/11/19 13:14:16;;;;;;;3.60;3.05;;;;;;;;;;5010717;28;20365;-55
2021/11/19 13:16:53;;;;;;;4.15;2.75;;;;;;;;;;5010919;28;20048;-54
2021/11/19 13:19:28;;;;;;;3.55;2.72;;;;;;;;;;5009697;28;20037;-53
2021/11/19 13:21:57;;;;;;;2.75;2.45;;;;;;;;;;5008251;28;20038;-54
2021/11/19 13:24:25;;;;;;;3.17;2.65;;;;;;;;;;5010662;28;20040;-53
2021/11/19 13:27:11;;;;;;;3.17;2.33;;;;;;;;;;5004317;28;20111;-57
2021/11/19 13:29:41;;;;;;;2.90;2.42;;;;;;;;;;5000082;28;20045;-55
2021/11/19 13:32:18;;;;;;;3.35;2.78;;;;;;;;;;5011966;28;20044;-55
2021/11/19 13:34:49;;;;;;;4.45;3.25;;;;;;;;;;5012560;28;20034;-54
2021/11/19 13:37:20;;;;;;;3.15;2.75;;;;;;;;;;5006304;28;20042;-54
2021/11/19 13:39:46;;;;;;;2.70;2.30;;;;;;;;;;5011186;28;20029;-54
2021/11/19 13:42:11;;;;;;;3.45;2.75;;;;;;;;;;5010045;28;20080;-55
2021/11/19 13:45:03;;;;;;;3.08;2.58;;;;;;;;;;5011014;28;20074;-55
2021/11/19 13:47:39;;;;;;;2.83;2.33;;;;;;;;;;5008811;28;20048;-56
2021/11/19 13:50:28;;;;;;;3.03;2.63;;;;;;;;;;5013143;28;20113;-54
2021/11/19 13:53:00;;;;;;;2.60;2.15;;;;;;;;;;5013481;28;20077;-56
2021/11/19 13:55:48;;;;;;;3.70;3.15;;;;;;;;;;5012695;28;20065;-55
2021/11/19 13:58:52;;;;;;;3.67;2.97;;;;;;;;;;5012920;28;20042;-56
2021/11/19 14:01:43;;;;;;;2.90;2.38;;;;;;;;;;5014697;28;20041;-55
2021/11/19 14:04:21;;;;;;;;;;;;;;;;;;5020477;28;20104;-54
2021/11/19 14:06:55;;;;;;;4.25;2.63;;;;;;;;;;5016338;28;19995;-56
2021/11/19 14:09:21;;;;;;;2.88;2.22;;;;;;;;;;5015727;28;20040;-54
2021/11/19 14:11:58;;;;;;;3.72;2.67;;;;;;;;;;5016178;28;20030;-54
2021/11/19 14:14:36;;;;;;;3.00;2.55;;;;;;;;;;5019187;28;20084;-54
2021/11/19 14:17:04;;;;;;;2.90;2.47;;;;;;;;;;5018349;28;20505;-59
2021/11/19 14:21:57;;;;;;;2.95;2.33;;;;;;;;;;5019311;28;20072;-54
2021/11/19 14:22:36;;;;;;;2.60;2.10;;;;;;;;;;5014848;28;20045;-58
2021/11/19 14:25:14;;;;;;;2.88;2.40;;;;;;;;;;5015047;28;20033;-58
2021/11/19 14:27:42;;;;;;;2.90;2.42;;;;;;;;;;5017909;28;20111;-58
2021/11/19 14:30:18;;;;;;;2.80;2.50;;;;;;;;;;5018144;28;20565;-59
2021/11/19 14:32:52;;;;;;;4.25;2.60;;;;;;;;;;5015699;28;20065;-58
2021/11/19 14:35:23;;;;;;;3.10;2.65;;;;;;;;;;5017383;28;20505;-52
2021/11/19 14:37:50;;;;;;;2.67;2.13;;;;;;;;;;5015704;28;20420;-59
2021/11/19 14:40:21;;;;;;;3.22;2.92;;;;;;;;;;5016513;28;20581;-58
2021/11/19 14:42:47;;;;;;;3.72;3.20;;;;;;;;;;5014055;28;20033;-58
2021/11/19 14:45:26;;;;;;;2.72;2.33;;;;;;;;;;5016634;28;20095;-58
2021/11/19 14:47:58;;;;;;;3.53;2.88;;;;;;;;;;5018347;28;20030;-59
2021/11/19 14:53:18;;;;;;;4.38;3.00;;;;;;;;;;5018600;28;20046;-58
2021/11/19 14:55:46;;;;;;;3.47;3.05;;;;;;;;;;5017598;28;20048;-58
2021/11/19 14:58:35;;;;;;;3.72;2.90;;;;;;;;;;5016774;28;20464;-55
2021/11/19 15:01:03;;;;;;;2.92;2.55;;;;;;;;;;5019399;28;20051;-53
2021/11/19 15:03:46;;;;;;;3.10;2.67;;;;;;;;;;5014254;28;20037;-53
2021/11/19 15:06:30;;;;;;;3.42;2.90;;;;;;;;;;5014530;28;20557;-54
2021/11/19 15:09:17;;;;;;;3.25;2.63;;;;;;;;;;5015081;28;20069;-55
2021/11/19 15:11:55;;;;;;;3.67;3.17;;;;;;;;;;5015835;28;20033;-54
2021/11/19 15:14:36;;;;;;;3.75;2.28;;;;;;;;;;5017664;28;20341;-54
2021/11/19 15:17:24;;;;;;;3.55;2.60;;;;;;;;;;5018331;28;20077;-54
2021/11/19 15:19:53;;;;;;;3.38;2.72;;;;;;;;;;5017858;28;20038;-53